Wally One — MVLL2 — position and weather

sailwx.info

Track history (hours):
 
Tides and Currents Weather Stations Pressure Air Temp Water Temp Dewpoint Dewpoint Depression Visibility Wind Speed Wind Dir Waves Ship Positions

Wally One

Last reported at 2013-Jul-21 18:30 UTC. Time now 2014-Dec-21 15:12 UTC.
Position N 43°34' E 007°06'.
Warning: this ship's position is years out of date!

Length 26 m.

Type: Sailing vessel. MMSI: 232132172.

Date/timePositionNaut miles runAvg speedWind from/ knotsBaromVisibWave heightAir tempDewpointWater temp
2013-Jul-21 18:30N 43°34' E 007°06'0 0.0
2013-Jul-21 17:18N 43°34' E 007°06'0 0.0
2013-Jul-21 16:30N 43°34' E 007°06'0 0.0
2013-Jul-21 15:30N 43°34' E 007°06'0 0.0
2013-Jul-21 14:30N 43°34' E 007°06'0 0.0
2013-Jul-21 13:30N 43°34' E 007°06'0 0.0
2013-Jul-21 12:30N 43°34' E 007°06'0 0.0
2013-Jul-21 11:30N 43°34' E 007°06'0 0.0
2013-Jul-21 10:18N 43°34' E 007°06'0 0.0
2013-Jul-21 09:30N 43°34' E 007°06'0 0.0
2013-Jul-21 08:30N 43°34' E 007°06'0 0.0
2013-Jul-21 07:24N 43°34' E 007°06'0 0.0
2013-Jul-20 18:31N 43°34' E 007°06'0 0.0
2013-Jul-20 17:31N 43°34' E 007°06'0 0.0
2013-Jul-20 16:31N 43°34' E 007°06'0 0.0
2013-Jul-20 11:25N 43°34' E 007°06'2 2.2
2013-Jul-20 10:33N 43°35' E 007°08'1 0.6
2013-Jul-20 09:33N 43°36' E 007°08'0 0.0
2013-Jul-19 17:32N 43°36' E 007°08'0 0.0
2013-Jul-19 16:32N 43°36' E 007°08'0 0.0
2013-Jul-19 14:32N 43°36' E 007°08'0 0.0
2013-Jul-19 13:32N 43°36' E 007°08'0 0.0
2013-Jul-19 12:32N 43°36' E 007°08'0 0.0
2013-Jul-19 11:32N 43°36' E 007°08'0 0.0
2013-Jul-19 10:20N 43°36' E 007°08'4 0.2
2013-Jul-18 15:31N 43°37' E 007°12'67 2.4
2013-Jul-17 11:27N 44°12' E 008°31'7 7.9
2013-Jul-17 10:33N 44°16' E 008°39'14 0.9
2013-Jul-16 18:29N 44°24' E 008°56'0 0.0
2013-Jul-16 15:32N 44°24' E 008°56'0 0.0
2013-Jul-16 14:31N 44°24' E 008°56'0 0.0
2013-Jul-16 11:31N 44°24' E 008°56'0 0.0
2013-Jul-15 18:28N 44°24' E 008°56'0 0.0
2013-Jul-15 17:28N 44°24' E 008°56'0 0.0
2013-Jul-15 16:22N 44°24' E 008°56'0 0.0
2013-Jul-15 15:25N 44°24' E 008°56'0 0.0
2013-Jul-15 14:28N 44°24' E 008°56'0 0.0
2013-Jul-15 13:33N 44°24' E 008°56'0 0.0
2013-Jul-15 12:30N 44°24' E 008°56'0 0.0
2013-Jul-15 11:24N 44°24' E 008°56'0 0.0
2013-Jul-14 19:12N 44°24' E 008°56'0 0.0
2013-Jul-14 18:31N 44°24' E 008°56'0 0.0
2013-Jul-14 16:33N 44°24' E 008°56'0 0.0
2013-Jul-14 15:32N 44°24' E 008°56'0 0.2
2013-Jul-14 14:32N 44°24' E 008°55'8 6.1
2013-Jul-14 13:16N 44°21' E 009°05'  
Track history (hours):
 
Tides and Currents Weather Stations Pressure Air Temp Water Temp Dewpoint Dewpoint Depression Visibility Wind Speed Wind Dir Waves Ship Positions

Wally One

Last reported at 2013-Jul-21 18:30 UTC. Time now 2014-Dec-21 15:12 UTC.
Position N 43°34' E 007°06'.
Warning: this ship's position is years out of date!

Length 26 m.

Type: Sailing vessel. MMSI: 232132172.

Date/timePositionNaut miles runAvg speedWind from/ knotsBaromVisibWave heightAir tempDewpointWater temp
2013-Jul-21 18:30N 43°34' E 007°06'0 0.0
2013-Jul-21 17:18N 43°34' E 007°06'0 0.0
2013-Jul-21 16:30N 43°34' E 007°06'0 0.0
2013-Jul-21 15:30N 43°34' E 007°06'0 0.0
2013-Jul-21 14:30N 43°34' E 007°06'0 0.0
2013-Jul-21 13:30N 43°34' E 007°06'0 0.0
2013-Jul-21 12:30N 43°34' E 007°06'0 0.0
2013-Jul-21 11:30N 43°34' E 007°06'0 0.0
2013-Jul-21 10:18N 43°34' E 007°06'0 0.0
2013-Jul-21 09:30N 43°34' E 007°06'0 0.0
2013-Jul-21 08:30N 43°34' E 007°06'0 0.0
2013-Jul-21 07:24N 43°34' E 007°06'0 0.0
2013-Jul-20 18:31N 43°34' E 007°06'0 0.0
2013-Jul-20 17:31N 43°34' E 007°06'0 0.0
2013-Jul-20 16:31N 43°34' E 007°06'0 0.0
2013-Jul-20 11:25N 43°34' E 007°06'2 2.2
2013-Jul-20 10:33N 43°35' E 007°08'1 0.6
2013-Jul-20 09:33N 43°36' E 007°08'0 0.0
2013-Jul-19 17:32N 43°36' E 007°08'0 0.0
2013-Jul-19 16:32N 43°36' E 007°08'0 0.0
2013-Jul-19 14:32N 43°36' E 007°08'0 0.0
2013-Jul-19 13:32N 43°36' E 007°08'0 0.0
2013-Jul-19 12:32N 43°36' E 007°08'0 0.0
2013-Jul-19 11:32N 43°36' E 007°08'0 0.0
2013-Jul-19 10:20N 43°36' E 007°08'4 0.2
2013-Jul-18 15:31N 43°37' E 007°12'67 2.4
2013-Jul-17 11:27N 44°12' E 008°31'7 7.9
2013-Jul-17 10:33N 44°16' E 008°39'14 0.9
2013-Jul-16 18:29N 44°24' E 008°56'0 0.0
2013-Jul-16 15:32N 44°24' E 008°56'0 0.0
2013-Jul-16 14:31N 44°24' E 008°56'0 0.0
2013-Jul-16 11:31N 44°24' E 008°56'0 0.0
2013-Jul-15 18:28N 44°24' E 008°56'0 0.0
2013-Jul-15 17:28N 44°24' E 008°56'0 0.0
2013-Jul-15 16:22N 44°24' E 008°56'0 0.0
2013-Jul-15 15:25N 44°24' E 008°56'0 0.0
2013-Jul-15 14:28N 44°24' E 008°56'0 0.0
2013-Jul-15 13:33N 44°24' E 008°56'0 0.0
2013-Jul-15 12:30N 44°24' E 008°56'0 0.0
2013-Jul-15 11:24N 44°24' E 008°56'0 0.0
2013-Jul-14 19:12N 44°24' E 008°56'0 0.0
2013-Jul-14 18:31N 44°24' E 008°56'0 0.0
2013-Jul-14 16:33N 44°24' E 008°56'0 0.0
2013-Jul-14 15:32N 44°24' E 008°56'0 0.2
2013-Jul-14 14:32N 44°24' E 008°55'8 6.1
2013-Jul-14 13:16N 44°21' E 009°05'  

Dump ship's entire track history